Terminal Aerodrome Forecast
Issued by NWS Pocatello, ID

Home | Current Version | Previous Version | Text Only | Print | Product List | Glossary On
Versions: 1 2 3 4 5 6 7 8 9 10 11 12 13 14 15 16 17 18 19 20 21 22
000
FTUS45 KPIH 260520
TAFPIH
TAF
KPIH 260520Z 2606/2706 08007KT P6SM OVC070
     FM261800 24011KT P6SM -SHRA VCTS OVC060CB
     FM270300 VRB06KT P6SM OVC100=

USA.gov is the U.S. government's official web portal to all federal, state and local government web resources and services.